sensor_id;sensor_type;location;lat;lon;timestamp;temperature;humidity
3850;DHT22;1940;51.052;13.678;2022-10-22T00:00:52;11.30;95.20
3850;DHT22;1940;51.052;13.678;2022-10-22T00:03:18;11.30;95.20
3850;DHT22;1940;51.052;13.678;2022-10-22T00:05:44;11.30;95.20
3850;DHT22;1940;51.052;13.678;2022-10-22T00:08:09;11.30;95.20
3850;DHT22;1940;51.052;13.678;2022-10-22T00:10:37;11.40;95.20
3850;DHT22;1940;51.052;13.678;2022-10-22T00:13:03;11.40;95.20
3850;DHT22;1940;51.052;13.678;2022-10-22T00:15:28;11.40;95.20
3850;DHT22;1940;51.052;13.678;2022-10-22T00:17:54;11.50;95.20
3850;DHT22;1940;51.052;13.678;2022-10-22T00:20:19;11.50;95.20
3850;DHT22;1940;51.052;13.678;2022-10-22T00:22:45;11.50;95.20
3850;DHT22;1940;51.052;13.678;2022-10-22T00:25:10;11.50;95.20
3850;DHT22;1940;51.052;13.678;2022-10-22T00:27:36;11.40;95.20
3850;DHT22;1940;51.052;13.678;2022-10-22T00:30:02;11.50;95.20
3850;DHT22;1940;51.052;13.678;2022-10-22T00:32:27;11.50;95.20
3850;DHT22;1940;51.052;13.678;2022-10-22T00:34:53;11.50;95.20
3850;DHT22;1940;51.052;13.678;2022-10-22T00:37:18;11.40;95.20
3850;DHT22;1940;51.052;13.678;2022-10-22T00:39:44;11.40;95.20
3850;DHT22;1940;51.052;13.678;2022-10-22T00:42:19;11.30;95.20
3850;DHT22;1940;51.052;13.678;2022-10-22T00:47:36;11.40;95.20
3850;DHT22;1940;51.052;13.678;2022-10-22T00:50:05;11.40;95.20
3850;DHT22;1940;51.052;13.678;2022-10-22T00:52:32;11.30;95.20
3850;DHT22;1940;51.052;13.678;2022-10-22T00:54:57;11.30;95.20
3850;DHT22;1940;51.052;13.678;2022-10-22T00:57:24;11.30;95.20
3850;DHT22;1940;51.052;13.678;2022-10-22T00:59:50;11.30;95.20
3850;DHT22;1940;51.052;13.678;2022-10-22T01:02:16;11.30;95.20
3850;DHT22;1940;51.052;13.678;2022-10-22T01:04:42;11.30;95.20
3850;DHT22;1940;51.052;13.678;2022-10-22T01:07:17;11.40;95.20
3850;DHT22;1940;51.052;13.678;2022-10-22T01:18:47;11.40;95.20
3850;DHT22;1940;51.052;13.678;2022-10-22T01:21:32;11.50;95.20
3850;DHT22;1940;51.052;13.678;2022-10-22T01:24:27;11.50;95.20
3850;DHT22;1940;51.052;13.678;2022-10-22T01:29:49;11.60;95.20
3850;DHT22;1940;51.052;13.678;2022-10-22T01:32:21;11.60;95.20
3850;DHT22;1940;51.052;13.678;2022-10-22T01:35:05;11.60;95.20
3850;DHT22;1940;51.052;13.678;2022-10-22T01:37:35;11.60;95.20
3850;DHT22;1940;51.052;13.678;2022-10-22T01:40:04;11.60;95.20
3850;DHT22;1940;51.052;13.678;2022-10-22T01:42:31;11.60;95.20
3850;DHT22;1940;51.052;13.678;2022-10-22T01:44:57;11.70;95.20
3850;DHT22;1940;51.052;13.678;2022-10-22T01:50:32;11.60;95.20
3850;DHT22;1940;51.052;13.678;2022-10-22T01:53:10;11.60;95.20
3850;DHT22;1940;51.052;13.678;2022-10-22T02:01:40;11.60;95.20
3850;DHT22;1940;51.052;13.678;2022-10-22T02:04:25;11.70;95.20
3850;DHT22;1940;51.052;13.678;2022-10-22T02:06:58;11.70;95.20
3850;DHT22;1940;51.052;13.678;2022-10-22T02:09:26;11.70;95.20
3850;DHT22;1940;51.052;13.678;2022-10-22T02:11:53;11.70;95.20
3850;DHT22;1940;51.052;13.678;2022-10-22T02:14:20;11.70;95.20
3850;DHT22;1940;51.052;13.678;2022-10-22T02:16:48;11.80;95.20
3850;DHT22;1940;51.052;13.678;2022-10-22T02:19:26;11.80;95.20
3850;DHT22;1940;51.052;13.678;2022-10-22T02:21:53;11.80;95.20
3850;DHT22;1940;51.052;13.678;2022-10-22T02:24:19;11.80;95.20
3850;DHT22;1940;51.052;13.678;2022-10-22T02:29:21;11.80;95.20
3850;DHT22;1940;51.052;13.678;2022-10-22T02:31:50;11.80;95.20
3850;DHT22;1940;51.052;13.678;2022-10-22T02:34:21;11.80;95.20
3850;DHT22;1940;51.052;13.678;2022-10-22T02:36:49;11.80;95.20
3850;DHT22;1940;51.052;13.678;2022-10-22T02:39:18;11.80;95.20
3850;DHT22;1940;51.052;13.678;2022-10-22T02:41:45;11.90;95.20
3850;DHT22;1940;51.052;13.678;2022-10-22T02:44:10;11.90;95.20
3850;DHT22;1940;51.052;13.678;2022-10-22T02:46:37;11.90;95.20
3850;DHT22;1940;51.052;13.678;2022-10-22T02:49:04;11.90;95.20
3850;DHT22;1940;51.052;13.678;2022-10-22T02:51:29;11.80;95.20
3850;DHT22;1940;51.052;13.678;2022-10-22T02:53:55;11.80;95.20
3850;DHT22;1940;51.052;13.678;2022-10-22T02:56:20;11.90;95.20
3850;DHT22;1940;51.052;13.678;2022-10-22T02:58:46;11.80;95.20
3850;DHT22;1940;51.052;13.678;2022-10-22T03:01:11;11.80;95.20
3850;DHT22;1940;51.052;13.678;2022-10-22T03:03:37;11.80;95.20
3850;DHT22;1940;51.052;13.678;2022-10-22T03:06:03;11.80;95.20
3850;DHT22;1940;51.052;13.678;2022-10-22T03:08:28;11.80;95.20
3850;DHT22;1940;51.052;13.678;2022-10-22T03:10:54;11.80;95.20
3850;DHT22;1940;51.052;13.678;2022-10-22T03:13:19;11.80;95.20
3850;DHT22;1940;51.052;13.678;2022-10-22T03:15:47;11.80;95.20
3850;DHT22;1940;51.052;13.678;2022-10-22T03:18:13;11.80;95.20
3850;DHT22;1940;51.052;13.678;2022-10-22T03:20:39;11.80;95.20
3850;DHT22;1940;51.052;13.678;2022-10-22T03:23:04;11.90;95.20
3850;DHT22;1940;51.052;13.678;2022-10-22T03:25:30;11.90;95.20
3850;DHT22;1940;51.052;13.678;2022-10-22T03:28:02;11.90;95.20
3850;DHT22;1940;51.052;13.678;2022-10-22T03:30:28;11.90;95.20
3850;DHT22;1940;51.052;13.678;2022-10-22T03:32:54;11.90;95.20
3850;DHT22;1940;51.052;13.678;2022-10-22T03:35:19;11.90;95.20
3850;DHT22;1940;51.052;13.678;2022-10-22T03:37:45;11.90;95.20
3850;DHT22;1940;51.052;13.678;2022-10-22T03:40:11;11.80;95.20
3850;DHT22;1940;51.052;13.678;2022-10-22T03:42:38;11.80;95.20
3850;DHT22;1940;51.052;13.678;2022-10-22T03:45:04;11.90;95.20
3850;DHT22;1940;51.052;13.678;2022-10-22T03:47:30;11.90;95.20
3850;DHT22;1940;51.052;13.678;2022-10-22T03:49:55;11.80;95.20
3850;DHT22;1940;51.052;13.678;2022-10-22T03:52:21;11.90;95.20
3850;DHT22;1940;51.052;13.678;2022-10-22T03:54:46;11.90;95.20
3850;DHT22;1940;51.052;13.678;2022-10-22T03:57:12;12.00;95.20
3850;DHT22;1940;51.052;13.678;2022-10-22T03:59:42;12.00;95.20
3850;DHT22;1940;51.052;13.678;2022-10-22T04:02:08;12.00;95.20
3850;DHT22;1940;51.052;13.678;2022-10-22T04:04:34;12.00;95.20
3850;DHT22;1940;51.052;13.678;2022-10-22T04:07:00;11.90;95.20
3850;DHT22;1940;51.052;13.678;2022-10-22T04:09:26;11.90;95.20
3850;DHT22;1940;51.052;13.678;2022-10-22T04:11:51;11.90;95.20
3850;DHT22;1940;51.052;13.678;2022-10-22T04:14:17;11.90;95.20
3850;DHT22;1940;51.052;13.678;2022-10-22T04:16:42;12.00;95.20
3850;DHT22;1940;51.052;13.678;2022-10-22T04:19:08;11.90;95.20
3850;DHT22;1940;51.052;13.678;2022-10-22T04:21:34;11.90;95.20
3850;DHT22;1940;51.052;13.678;2022-10-22T04:23:59;11.90;95.20
3850;DHT22;1940;51.052;13.678;2022-10-22T04:26:25;11.90;95.20
3850;DHT22;1940;51.052;13.678;2022-10-22T04:28:51;11.90;95.20
3850;DHT22;1940;51.052;13.678;2022-10-22T04:31:19;11.90;95.20
3850;DHT22;1940;51.052;13.678;2022-10-22T04:33:45;11.90;95.20
3850;DHT22;1940;51.052;13.678;2022-10-22T04:36:14;11.90;95.20
3850;DHT22;1940;51.052;13.678;2022-10-22T04:38:40;11.90;95.20
3850;DHT22;1940;51.052;13.678;2022-10-22T04:41:15;12.00;95.20
3850;DHT22;1940;51.052;13.678;2022-10-22T04:43:41;12.00;95.20
3850;DHT22;1940;51.052;13.678;2022-10-22T04:46:07;11.90;95.20
3850;DHT22;1940;51.052;13.678;2022-10-22T04:48:34;11.90;95.20
3850;DHT22;1940;51.052;13.678;2022-10-22T04:51:00;11.90;95.20
3850;DHT22;1940;51.052;13.678;2022-10-22T04:53:26;11.90;95.20
3850;DHT22;1940;51.052;13.678;2022-10-22T04:55:52;11.90;95.20
3850;DHT22;1940;51.052;13.678;2022-10-22T04:58:18;11.90;95.20
3850;DHT22;1940;51.052;13.678;2022-10-22T05:00:43;11.90;95.20
3850;DHT22;1940;51.052;13.678;2022-10-22T05:03:09;11.80;95.20
3850;DHT22;1940;51.052;13.678;2022-10-22T05:05:34;11.80;95.20
3850;DHT22;1940;51.052;13.678;2022-10-22T05:08:00;11.90;95.20
3850;DHT22;1940;51.052;13.678;2022-10-22T05:10:25;11.80;95.20
3850;DHT22;1940;51.052;13.678;2022-10-22T05:12:51;11.80;95.20
3850;DHT22;1940;51.052;13.678;2022-10-22T05:15:16;11.80;95.20
3850;DHT22;1940;51.052;13.678;2022-10-22T05:17:42;11.80;95.20
3850;DHT22;1940;51.052;13.678;2022-10-22T05:20:08;11.80;95.20
3850;DHT22;1940;51.052;13.678;2022-10-22T05:22:33;11.90;95.20
3850;DHT22;1940;51.052;13.678;2022-10-22T05:24:59;11.80;95.20
3850;DHT22;1940;51.052;13.678;2022-10-22T05:27:25;11.70;95.20
3850;DHT22;1940;51.052;13.678;2022-10-22T05:29:50;11.70;95.20
3850;DHT22;1940;51.052;13.678;2022-10-22T05:32:16;11.70;95.20
3850;DHT22;1940;51.052;13.678;2022-10-22T05:34:42;11.70;95.20
3850;DHT22;1940;51.052;13.678;2022-10-22T05:37:07;11.80;95.20
3850;DHT22;1940;51.052;13.678;2022-10-22T05:39:33;11.70;95.20
3850;DHT22;1940;51.052;13.678;2022-10-22T05:42:01;11.70;95.20
3850;DHT22;1940;51.052;13.678;2022-10-22T05:44:27;11.70;95.20
3850;DHT22;1940;51.052;13.678;2022-10-22T05:46:52;11.70;95.20
3850;DHT22;1940;51.052;13.678;2022-10-22T05:49:18;11.70;95.20
3850;DHT22;1940;51.052;13.678;2022-10-22T05:51:44;11.70;95.20
3850;DHT22;1940;51.052;13.678;2022-10-22T05:54:18;11.70;95.20
3850;DHT22;1940;51.052;13.678;2022-10-22T05:56:44;11.70;95.20
3850;DHT22;1940;51.052;13.678;2022-10-22T05:59:10;11.70;95.20
3850;DHT22;1940;51.052;13.678;2022-10-22T06:01:37;11.70;95.20
3850;DHT22;1940;51.052;13.678;2022-10-22T06:04:05;11.80;95.20
3850;DHT22;1940;51.052;13.678;2022-10-22T06:06:32;11.80;95.20
3850;DHT22;1940;51.052;13.678;2022-10-22T06:11:34;11.90;95.20
3850;DHT22;1940;51.052;13.678;2022-10-22T06:14:00;11.90;95.20
3850;DHT22;1940;51.052;13.678;2022-10-22T06:16:28;11.90;95.20
3850;DHT22;1940;51.052;13.678;2022-10-22T06:18:54;11.90;95.20
3850;DHT22;1940;51.052;13.678;2022-10-22T06:21:19;12.00;95.20
3850;DHT22;1940;51.052;13.678;2022-10-22T06:23:45;12.00;95.20
3850;DHT22;1940;51.052;13.678;2022-10-22T06:26:11;12.00;95.20
3850;DHT22;1940;51.052;13.678;2022-10-22T06:28:36;12.00;95.20
3850;DHT22;1940;51.052;13.678;2022-10-22T06:31:03;12.00;95.20
3850;DHT22;1940;51.052;13.678;2022-10-22T06:33:31;12.10;95.20
3850;DHT22;1940;51.052;13.678;2022-10-22T06:36:07;12.00;95.00
3850;DHT22;1940;51.052;13.678;2022-10-22T06:38:33;12.00;95.20
3850;DHT22;1940;51.052;13.678;2022-10-22T06:41:04;12.00;95.20
3850;DHT22;1940;51.052;13.678;2022-10-22T06:43:30;12.10;95.20
3850;DHT22;1940;51.052;13.678;2022-10-22T06:46:00;12.10;95.00
3850;DHT22;1940;51.052;13.678;2022-10-22T06:48:26;12.10;94.80
3850;DHT22;1940;51.052;13.678;2022-10-22T06:50:52;12.10;94.50
3850;DHT22;1940;51.052;13.678;2022-10-22T06:53:18;12.10;94.80
3850;DHT22;1940;51.052;13.678;2022-10-22T06:55:44;12.10;94.80
3850;DHT22;1940;51.052;13.678;2022-10-22T06:58:09;12.10;94.70
3850;DHT22;1940;51.052;13.678;2022-10-22T07:00:35;12.10;94.70
3850;DHT22;1940;51.052;13.678;2022-10-22T07:03:00;12.10;94.60
3850;DHT22;1940;51.052;13.678;2022-10-22T07:05:26;12.10;94.50
3850;DHT22;1940;51.052;13.678;2022-10-22T07:07:51;12.10;94.50
3850;DHT22;1940;51.052;13.678;2022-10-22T07:10:17;12.20;94.50
3850;DHT22;1940;51.052;13.678;2022-10-22T07:12:42;12.20;94.60
3850;DHT22;1940;51.052;13.678;2022-10-22T07:15:08;12.30;94.40
3850;DHT22;1940;51.052;13.678;2022-10-22T07:17:34;12.30;94.30
3850;DHT22;1940;51.052;13.678;2022-10-22T07:19:59;12.40;94.30
3850;DHT22;1940;51.052;13.678;2022-10-22T07:22:26;12.40;93.80
3850;DHT22;1940;51.052;13.678;2022-10-22T07:24:51;12.30;93.90
3850;DHT22;1940;51.052;13.678;2022-10-22T07:27:17;12.30;93.80
3850;DHT22;1940;51.052;13.678;2022-10-22T07:29:42;12.40;93.90
3850;DHT22;1940;51.052;13.678;2022-10-22T07:32:08;12.40;93.70
3850;DHT22;1940;51.052;13.678;2022-10-22T07:34:33;12.30;93.70
3850;DHT22;1940;51.052;13.678;2022-10-22T07:36:59;12.30;93.80
3850;DHT22;1940;51.052;13.678;2022-10-22T07:39:24;12.30;93.90
3850;DHT22;1940;51.052;13.678;2022-10-22T07:41:51;12.30;94.00
3850;DHT22;1940;51.052;13.678;2022-10-22T07:44:16;12.30;94.00
3850;DHT22;1940;51.052;13.678;2022-10-22T07:46:42;12.30;94.00
3850;DHT22;1940;51.052;13.678;2022-10-22T07:49:07;12.30;94.10
3850;DHT22;1940;51.052;13.678;2022-10-22T07:51:33;12.40;94.20
3850;DHT22;1940;51.052;13.678;2022-10-22T07:53:59;12.40;94.10
3850;DHT22;1940;51.052;13.678;2022-10-22T07:56:24;12.30;94.30
3850;DHT22;1940;51.052;13.678;2022-10-22T07:58:50;12.30;94.40
3850;DHT22;1940;51.052;13.678;2022-10-22T08:01:15;12.30;94.80
3850;DHT22;1940;51.052;13.678;2022-10-22T08:03:41;12.30;95.00
3850;DHT22;1940;51.052;13.678;2022-10-22T08:06:08;12.30;95.20
3850;DHT22;1940;51.052;13.678;2022-10-22T08:08:34;12.30;95.20
3850;DHT22;1940;51.052;13.678;2022-10-22T08:11:00;12.40;95.20
3850;DHT22;1940;51.052;13.678;2022-10-22T08:13:26;12.60;95.20
3850;DHT22;1940;51.052;13.678;2022-10-22T08:15:55;12.90;95.20
3850;DHT22;1940;51.052;13.678;2022-10-22T08:18:20;13.20;95.20
3850;DHT22;1940;51.052;13.678;2022-10-22T08:20:46;13.40;95.20
3850;DHT22;1940;51.052;13.678;2022-10-22T08:23:15;13.60;95.20
3850;DHT22;1940;51.052;13.678;2022-10-22T08:25:40;13.60;95.20
3850;DHT22;1940;51.052;13.678;2022-10-22T08:28:06;13.80;95.20
3850;DHT22;1940;51.052;13.678;2022-10-22T08:30:32;13.80;95.20
3850;DHT22;1940;51.052;13.678;2022-10-22T08:32:58;13.90;95.20
3850;DHT22;1940;51.052;13.678;2022-10-22T08:35:24;14.00;95.20
3850;DHT22;1940;51.052;13.678;2022-10-22T08:37:49;14.00;95.20
3850;DHT22;1940;51.052;13.678;2022-10-22T08:40:41;14.10;95.20
3850;DHT22;1940;51.052;13.678;2022-10-22T08:43:22;14.20;95.20
3850;DHT22;1940;51.052;13.678;2022-10-22T08:48:54;14.30;95.20
3850;DHT22;1940;51.052;13.678;2022-10-22T08:51:24;14.50;95.20
3850;DHT22;1940;51.052;13.678;2022-10-22T08:56:31;14.50;95.20
3850;DHT22;1940;51.052;13.678;2022-10-22T08:59:04;14.70;95.20
3850;DHT22;1940;51.052;13.678;2022-10-22T09:01:46;14.70;95.20
3850;DHT22;1940;51.052;13.678;2022-10-22T09:07:02;14.80;95.20
3850;DHT22;1940;51.052;13.678;2022-10-22T09:09:38;14.90;95.20
3850;DHT22;1940;51.052;13.678;2022-10-22T09:12:05;14.90;95.20
3850;DHT22;1940;51.052;13.678;2022-10-22T09:14:31;14.80;95.20
3850;DHT22;1940;51.052;13.678;2022-10-22T09:17:19;14.80;95.20
3850;DHT22;1940;51.052;13.678;2022-10-22T09:20:13;14.80;95.20
3850;DHT22;1940;51.052;13.678;2022-10-22T09:27:44;14.90;95.20
3850;DHT22;1940;51.052;13.678;2022-10-22T09:30:25;14.90;95.10
3850;DHT22;1940;51.052;13.678;2022-10-22T09:32:59;15.00;94.70
3850;DHT22;1940;51.052;13.678;2022-10-22T09:35:26;15.10;94.70
3850;DHT22;1940;51.052;13.678;2022-10-22T09:37:54;15.30;94.80
3850;DHT22;1940;51.052;13.678;2022-10-22T09:40:22;15.60;93.90
3850;DHT22;1940;51.052;13.678;2022-10-22T09:42:48;15.80;93.20
3850;DHT22;1940;51.052;13.678;2022-10-22T09:45:20;16.30;92.70
3850;DHT22;1940;51.052;13.678;2022-10-22T09:47:47;16.80;91.00
3850;DHT22;1940;51.052;13.678;2022-10-22T09:50:28;17.20;89.10
3850;DHT22;1940;51.052;13.678;2022-10-22T09:53:18;17.60;87.60
3850;DHT22;1940;51.052;13.678;2022-10-22T09:55:49;18.30;87.00
3850;DHT22;1940;51.052;13.678;2022-10-22T09:58:16;19.10;82.80
3850;DHT22;1940;51.052;13.678;2022-10-22T10:00:45;19.20;81.20
3850;DHT22;1940;51.052;13.678;2022-10-22T10:03:17;19.20;81.70
3850;DHT22;1940;51.052;13.678;2022-10-22T10:05:46;19.80;80.90
3850;DHT22;1940;51.052;13.678;2022-10-22T10:08:14;20.70;79.30
3850;DHT22;1940;51.052;13.678;2022-10-22T10:13:21;24.20;70.40
3850;DHT22;1940;51.052;13.678;2022-10-22T10:21:46;25.60;64.50
3850;DHT22;1940;51.052;13.678;2022-10-22T10:27:34;24.30;66.60
3850;DHT22;1940;51.052;13.678;2022-10-22T10:41:34;22.50;71.50
3850;DHT22;1940;51.052;13.678;2022-10-22T10:49:35;21.30;71.20
3850;DHT22;1940;51.052;13.678;2022-10-22T10:54:56;20.80;73.80
3850;DHT22;1940;51.052;13.678;2022-10-22T10:57:46;20.50;73.70
3850;DHT22;1940;51.052;13.678;2022-10-22T11:00:20;20.40;73.40
3850;DHT22;1940;51.052;13.678;2022-10-22T11:05:38;20.00;73.30
3850;DHT22;1940;51.052;13.678;2022-10-22T11:08:42;20.00;74.70
3850;DHT22;1940;51.052;13.678;2022-10-22T11:11:16;19.70;74.10
3850;DHT22;1940;51.052;13.678;2022-10-22T11:13:58;19.20;74.80
3850;DHT22;1940;51.052;13.678;2022-10-22T11:16:39;19.00;75.80
3850;DHT22;1940;51.052;13.678;2022-10-22T11:19:26;18.80;76.90
3850;DHT22;1940;51.052;13.678;2022-10-22T11:21:55;18.70;77.90
3850;DHT22;1940;51.052;13.678;2022-10-22T11:24:32;18.70;78.50
3850;DHT22;1940;51.052;13.678;2022-10-22T11:27:06;18.70;78.60
3850;DHT22;1940;51.052;13.678;2022-10-22T11:29:45;18.50;78.40
3850;DHT22;1940;51.052;13.678;2022-10-22T11:32:18;18.20;78.80
3850;DHT22;1940;51.052;13.678;2022-10-22T11:34:52;18.10;79.60
3850;DHT22;1940;51.052;13.678;2022-10-22T11:37:19;18.10;79.70
3850;DHT22;1940;51.052;13.678;2022-10-22T11:40:00;18.20;79.40
3850;DHT22;1940;51.052;13.678;2022-10-22T11:42:40;18.20;79.50
3850;DHT22;1940;51.052;13.678;2022-10-22T11:58:41;18.80;78.10
3850;DHT22;1940;51.052;13.678;2022-10-22T12:08:48;19.10;78.90
3850;DHT22;1940;51.052;13.678;2022-10-22T12:14:12;19.40;78.30
3850;DHT22;1940;51.052;13.678;2022-10-22T12:16:43;19.60;77.30
3850;DHT22;1940;51.052;13.678;2022-10-22T12:21:37;19.80;77.00
3850;DHT22;1940;51.052;13.678;2022-10-22T12:24:04;20.10;76.50
3850;DHT22;1940;51.052;13.678;2022-10-22T12:26:31;20.20;76.30
3850;DHT22;1940;51.052;13.678;2022-10-22T12:29:01;20.20;75.50
3850;DHT22;1940;51.052;13.678;2022-10-22T12:31:27;20.00;75.20
3850;DHT22;1940;51.052;13.678;2022-10-22T12:33:59;19.90;75.90
3850;DHT22;1940;51.052;13.678;2022-10-22T12:36:26;19.60;76.50
3850;DHT22;1940;51.052;13.678;2022-10-22T12:38:52;19.50;77.10
3850;DHT22;1940;51.052;13.678;2022-10-22T12:41:20;19.50;77.30
3850;DHT22;1940;51.052;13.678;2022-10-22T12:43:46;19.40;77.70
3850;DHT22;1940;51.052;13.678;2022-10-22T12:46:13;19.30;77.30
3850;DHT22;1940;51.052;13.678;2022-10-22T12:48:42;19.30;77.90
3850;DHT22;1940;51.052;13.678;2022-10-22T12:51:15;19.30;77.70
3850;DHT22;1940;51.052;13.678;2022-10-22T12:53:46;19.10;77.80
3850;DHT22;1940;51.052;13.678;2022-10-22T12:56:17;19.20;78.00
3850;DHT22;1940;51.052;13.678;2022-10-22T12:59:11;19.20;78.20
3850;DHT22;1940;51.052;13.678;2022-10-22T13:01:37;19.30;77.90
3850;DHT22;1940;51.052;13.678;2022-10-22T13:04:19;19.20;77.20
3850;DHT22;1940;51.052;13.678;2022-10-22T13:06:47;19.10;75.90
3850;DHT22;1940;51.052;13.678;2022-10-22T13:09:21;18.90;76.30
3850;DHT22;1940;51.052;13.678;2022-10-22T13:11:52;18.80;76.70
3850;DHT22;1940;51.052;13.678;2022-10-22T13:14:27;18.70;76.10
3850;DHT22;1940;51.052;13.678;2022-10-22T13:17:17;18.60;76.50
3850;DHT22;1940;51.052;13.678;2022-10-22T13:19:47;18.60;76.50
3850;DHT22;1940;51.052;13.678;2022-10-22T13:22:29;18.60;76.60
3850;DHT22;1940;51.052;13.678;2022-10-22T13:24:56;18.50;76.90
3850;DHT22;1940;51.052;13.678;2022-10-22T13:27:27;18.50;77.50
3850;DHT22;1940;51.052;13.678;2022-10-22T13:29:54;18.50;77.60
3850;DHT22;1940;51.052;13.678;2022-10-22T13:32:31;18.40;77.60
3850;DHT22;1940;51.052;13.678;2022-10-22T13:34:59;18.40;77.50
3850;DHT22;1940;51.052;13.678;2022-10-22T13:37:26;18.40;77.30
3850;DHT22;1940;51.052;13.678;2022-10-22T13:39:52;18.40;77.80
3850;DHT22;1940;51.052;13.678;2022-10-22T13:42:18;18.50;77.00
3850;DHT22;1940;51.052;13.678;2022-10-22T13:44:44;18.50;77.20
3850;DHT22;1940;51.052;13.678;2022-10-22T13:47:26;18.50;77.60
3850;DHT22;1940;51.052;13.678;2022-10-22T13:49:56;18.50;78.10
3850;DHT22;1940;51.052;13.678;2022-10-22T13:52:35;18.60;78.20
3850;DHT22;1940;51.052;13.678;2022-10-22T13:55:13;18.60;78.20
3850;DHT22;1940;51.052;13.678;2022-10-22T13:57:39;18.50;77.30
3850;DHT22;1940;51.052;13.678;2022-10-22T14:00:16;18.50;77.60
3850;DHT22;1940;51.052;13.678;2022-10-22T14:02:47;18.50;77.40
3850;DHT22;1940;51.052;13.678;2022-10-22T14:05:14;18.50;76.80
3850;DHT22;1940;51.052;13.678;2022-10-22T14:07:41;18.50;76.80
3850;DHT22;1940;51.052;13.678;2022-10-22T14:10:18;18.50;76.80
3850;DHT22;1940;51.052;13.678;2022-10-22T14:12:44;18.40;77.20
3850;DHT22;1940;51.052;13.678;2022-10-22T14:15:12;18.40;77.50
3850;DHT22;1940;51.052;13.678;2022-10-22T14:17:39;18.40;77.80
3850;DHT22;1940;51.052;13.678;2022-10-22T14:20:16;18.50;77.80
3850;DHT22;1940;51.052;13.678;2022-10-22T14:22:44;18.50;78.00
3850;DHT22;1940;51.052;13.678;2022-10-22T14:25:14;18.50;77.10
3850;DHT22;1940;51.052;13.678;2022-10-22T14:27:40;18.40;77.50
3850;DHT22;1940;51.052;13.678;2022-10-22T14:30:06;18.20;77.60
3850;DHT22;1940;51.052;13.678;2022-10-22T14:32:32;18.30;77.70
3850;DHT22;1940;51.052;13.678;2022-10-22T14:34:57;18.30;77.60
3850;DHT22;1940;51.052;13.678;2022-10-22T14:37:24;18.30;77.80
3850;DHT22;1940;51.052;13.678;2022-10-22T14:39:49;18.30;77.80
3850;DHT22;1940;51.052;13.678;2022-10-22T14:42:25;18.40;77.90
3850;DHT22;1940;51.052;13.678;2022-10-22T14:44:51;18.50;77.80
3850;DHT22;1940;51.052;13.678;2022-10-22T14:47:17;18.50;77.50
3850;DHT22;1940;51.052;13.678;2022-10-22T14:49:42;18.50;77.60
3850;DHT22;1940;51.052;13.678;2022-10-22T14:52:08;18.50;77.80
3850;DHT22;1940;51.052;13.678;2022-10-22T14:54:33;18.50;77.60
3850;DHT22;1940;51.052;13.678;2022-10-22T14:57:00;18.50;77.60
3850;DHT22;1940;51.052;13.678;2022-10-22T14:59:26;18.50;78.00
3850;DHT22;1940;51.052;13.678;2022-10-22T15:01:52;18.50;77.80
3850;DHT22;1940;51.052;13.678;2022-10-22T15:04:17;18.50;77.80
3850;DHT22;1940;51.052;13.678;2022-10-22T15:06:43;18.50;77.80
3850;DHT22;1940;51.052;13.678;2022-10-22T15:09:08;18.50;77.80
3850;DHT22;1940;51.052;13.678;2022-10-22T15:11:34;18.60;78.10
3850;DHT22;1940;51.052;13.678;2022-10-22T15:14:00;18.60;77.60
3850;DHT22;1940;51.052;13.678;2022-10-22T15:16:25;18.60;78.10
3850;DHT22;1940;51.052;13.678;2022-10-22T15:18:51;18.50;78.20
3850;DHT22;1940;51.052;13.678;2022-10-22T15:21:20;18.50;78.20
3850;DHT22;1940;51.052;13.678;2022-10-22T15:23:46;18.50;78.60
3850;DHT22;1940;51.052;13.678;2022-10-22T15:26:13;18.40;78.60
3850;DHT22;1940;51.052;13.678;2022-10-22T15:28:39;18.40;78.50
3850;DHT22;1940;51.052;13.678;2022-10-22T15:31:06;18.30;79.00
3850;DHT22;1940;51.052;13.678;2022-10-22T15:33:32;18.20;79.10
3850;DHT22;1940;51.052;13.678;2022-10-22T15:35:58;18.20;79.30
3850;DHT22;1940;51.052;13.678;2022-10-22T15:38:33;18.10;79.50
3850;DHT22;1940;51.052;13.678;2022-10-22T15:41:02;18.10;79.70
3850;DHT22;1940;51.052;13.678;2022-10-22T15:43:28;18.10;79.80
3850;DHT22;1940;51.052;13.678;2022-10-22T15:46:15;18.10;79.80
3850;DHT22;1940;51.052;13.678;2022-10-22T15:48:41;18.00;80.00
3850;DHT22;1940;51.052;13.678;2022-10-22T15:51:15;18.00;80.20
3850;DHT22;1940;51.052;13.678;2022-10-22T15:53:41;17.90;80.40
3850;DHT22;1940;51.052;13.678;2022-10-22T15:56:08;17.90;80.50
3850;DHT22;1940;51.052;13.678;2022-10-22T15:58:34;17.80;80.70
3850;DHT22;1940;51.052;13.678;2022-10-22T16:01:07;17.70;80.80
3850;DHT22;1940;51.052;13.678;2022-10-22T16:03:33;17.60;81.10
3850;DHT22;1940;51.052;13.678;2022-10-22T16:05:59;17.60;81.40
3850;DHT22;1940;51.052;13.678;2022-10-22T16:08:25;17.40;81.70
3850;DHT22;1940;51.052;13.678;2022-10-22T16:10:51;17.30;82.30
3850;DHT22;1940;51.052;13.678;2022-10-22T16:13:18;17.30;82.40
3850;DHT22;1940;51.052;13.678;2022-10-22T16:15:45;17.20;82.80
3850;DHT22;1940;51.052;13.678;2022-10-22T16:18:11;17.10;83.10
3850;DHT22;1940;51.052;13.678;2022-10-22T16:20:41;17.00;83.60
3850;DHT22;1940;51.052;13.678;2022-10-22T16:23:07;16.90;84.00
3850;DHT22;1940;51.052;13.678;2022-10-22T16:25:39;16.80;84.40
3850;DHT22;1940;51.052;13.678;2022-10-22T16:28:06;16.70;84.70
3850;DHT22;1940;51.052;13.678;2022-10-22T16:30:33;16.60;85.20
3850;DHT22;1940;51.052;13.678;2022-10-22T16:32:59;16.60;85.40
3850;DHT22;1940;51.052;13.678;2022-10-22T16:35:25;16.50;85.80
3850;DHT22;1940;51.052;13.678;2022-10-22T16:37:50;16.40;86.20
3850;DHT22;1940;51.052;13.678;2022-10-22T16:40:16;16.40;86.10
3850;DHT22;1940;51.052;13.678;2022-10-22T16:42:43;16.20;86.60
3850;DHT22;1940;51.052;13.678;2022-10-22T16:45:09;16.00;87.40
3850;DHT22;1940;51.052;13.678;2022-10-22T16:47:34;16.00;87.80
3850;DHT22;1940;51.052;13.678;2022-10-22T16:50:00;15.90;87.80
3850;DHT22;1940;51.052;13.678;2022-10-22T16:52:25;15.90;88.10
3850;DHT22;1940;51.052;13.678;2022-10-22T16:54:51;15.80;88.30
3850;DHT22;1940;51.052;13.678;2022-10-22T16:57:16;15.70;88.50
3850;DHT22;1940;51.052;13.678;2022-10-22T16:59:42;15.70;88.60
3850;DHT22;1940;51.052;13.678;2022-10-22T17:02:09;15.60;89.00
3850;DHT22;1940;51.052;13.678;2022-10-22T17:04:35;15.60;89.20
3850;DHT22;1940;51.052;13.678;2022-10-22T17:07:01;15.50;89.10
3850;DHT22;1940;51.052;13.678;2022-10-22T17:09:26;15.60;89.20
3850;DHT22;1940;51.052;13.678;2022-10-22T17:11:52;15.60;88.90
3850;DHT22;1940;51.052;13.678;2022-10-22T17:14:18;15.60;88.90
3850;DHT22;1940;51.052;13.678;2022-10-22T17:16:45;15.50;89.10
3850;DHT22;1940;51.052;13.678;2022-10-22T17:19:13;15.40;89.10
3850;DHT22;1940;51.052;13.678;2022-10-22T17:21:40;15.30;88.90
3850;DHT22;1940;51.052;13.678;2022-10-22T17:24:06;15.30;89.10
3850;DHT22;1940;51.052;13.678;2022-10-22T17:26:32;15.20;89.20
3850;DHT22;1940;51.052;13.678;2022-10-22T17:28:59;15.10;89.30
3850;DHT22;1940;51.052;13.678;2022-10-22T17:31:30;14.90;89.50
3850;DHT22;1940;51.052;13.678;2022-10-22T17:33:57;14.80;90.20
3850;DHT22;1940;51.052;13.678;2022-10-22T17:36:25;14.70;90.70